sensor_id;sensor_type;location;lat;lon;timestamp;P1;durP1;ratioP1;P2;durP2;ratioP2
16963;SDS011;8598;50.508;10.436;2022-12-13T00:00:02;35.83;;;14.73;;
16963;SDS011;8598;50.508;10.436;2022-12-13T00:02:31;33.33;;;15.37;;
16963;SDS011;8598;50.508;10.436;2022-12-13T00:04:58;34.47;;;15.77;;
16963;SDS011;8598;50.508;10.436;2022-12-13T00:07:24;37.53;;;16.90;;
16963;SDS011;8598;50.508;10.436;2022-12-13T00:09:51;35.47;;;16.37;;
16963;SDS011;8598;50.508;10.436;2022-12-13T00:12:18;38.37;;;17.20;;
16963;SDS011;8598;50.508;10.436;2022-12-13T00:14:44;31.17;;;14.47;;
16963;SDS011;8598;50.508;10.436;2022-12-13T00:17:11;39.20;;;16.90;;
16963;SDS011;8598;50.508;10.436;2022-12-13T00:19:39;34.80;;;14.17;;
16963;SDS011;8598;50.508;10.436;2022-12-13T00:22:06;30.57;;;13.77;;
16963;SDS011;8598;50.508;10.436;2022-12-13T00:24:33;35.23;;;17.97;;
16963;SDS011;8598;50.508;10.436;2022-12-13T00:27:00;40.90;;;15.60;;
16963;SDS011;8598;50.508;10.436;2022-12-13T00:29:26;40.77;;;16.60;;
16963;SDS011;8598;50.508;10.436;2022-12-13T00:31:53;39.67;;;16.10;;
16963;SDS011;8598;50.508;10.436;2022-12-13T00:34:20;48.50;;;20.17;;
16963;SDS011;8598;50.508;10.436;2022-12-13T00:36:48;44.40;;;18.87;;
16963;SDS011;8598;50.508;10.436;2022-12-13T00:39:15;36.77;;;17.20;;
16963;SDS011;8598;50.508;10.436;2022-12-13T00:41:43;31.60;;;15.97;;
16963;SDS011;8598;50.508;10.436;2022-12-13T00:44:10;31.23;;;16.03;;
16963;SDS011;8598;50.508;10.436;2022-12-13T00:46:38;34.07;;;15.23;;
16963;SDS011;8598;50.508;10.436;2022-12-13T00:49:05;24.70;;;12.37;;
16963;SDS011;8598;50.508;10.436;2022-12-13T00:51:33;34.43;;;15.23;;
16963;SDS011;8598;50.508;10.436;2022-12-13T00:54:01;26.60;;;13.43;;
16963;SDS011;8598;50.508;10.436;2022-12-13T00:56:29;31.10;;;13.60;;
16963;SDS011;8598;50.508;10.436;2022-12-13T00:58:57;30.00;;;13.50;;
16963;SDS011;8598;50.508;10.436;2022-12-13T01:01:25;25.03;;;13.97;;
16963;SDS011;8598;50.508;10.436;2022-12-13T01:03:53;23.53;;;12.53;;
16963;SDS011;8598;50.508;10.436;2022-12-13T01:06:22;25.93;;;10.93;;
16963;SDS011;8598;50.508;10.436;2022-12-13T01:08:52;27.77;;;12.43;;
16963;SDS011;8598;50.508;10.436;2022-12-13T01:11:21;27.10;;;13.40;;
16963;SDS011;8598;50.508;10.436;2022-12-13T01:13:47;27.77;;;12.63;;
16963;SDS011;8598;50.508;10.436;2022-12-13T01:16:14;39.93;;;15.07;;
16963;SDS011;8598;50.508;10.436;2022-12-13T01:18:42;31.23;;;13.40;;
16963;SDS011;8598;50.508;10.436;2022-12-13T01:21:10;33.07;;;13.90;;
16963;SDS011;8598;50.508;10.436;2022-12-13T01:23:39;31.97;;;16.67;;
16963;SDS011;8598;50.508;10.436;2022-12-13T01:26:07;33.37;;;14.03;;
16963;SDS011;8598;50.508;10.436;2022-12-13T01:28:37;28.47;;;14.93;;
16963;SDS011;8598;50.508;10.436;2022-12-13T01:31:06;25.50;;;12.47;;
16963;SDS011;8598;50.508;10.436;2022-12-13T01:33:35;25.67;;;13.07;;
16963;SDS011;8598;50.508;10.436;2022-12-13T01:36:03;30.93;;;13.37;;
16963;SDS011;8598;50.508;10.436;2022-12-13T01:38:31;29.73;;;13.70;;
16963;SDS011;8598;50.508;10.436;2022-12-13T01:40:59;29.70;;;12.60;;
16963;SDS011;8598;50.508;10.436;2022-12-13T01:43:27;25.90;;;12.97;;
16963;SDS011;8598;50.508;10.436;2022-12-13T01:46:16;30.10;;;12.70;;
16963;SDS011;8598;50.508;10.436;2022-12-13T01:48:44;26.80;;;13.00;;
16963;SDS011;8598;50.508;10.436;2022-12-13T01:51:14;26.50;;;13.83;;
16963;SDS011;8598;50.508;10.436;2022-12-13T01:53:44;25.60;;;13.03;;
16963;SDS011;8598;50.508;10.436;2022-12-13T01:56:14;31.20;;;12.87;;
16963;SDS011;8598;50.508;10.436;2022-12-13T01:58:44;23.67;;;12.23;;
16963;SDS011;8598;50.508;10.436;2022-12-13T02:01:13;21.90;;;12.23;;
16963;SDS011;8598;50.508;10.436;2022-12-13T02:03:41;22.90;;;12.63;;
16963;SDS011;8598;50.508;10.436;2022-12-13T02:06:09;26.80;;;14.97;;
16963;SDS011;8598;50.508;10.436;2022-12-13T02:08:39;29.40;;;13.90;;
16963;SDS011;8598;50.508;10.436;2022-12-13T02:11:07;22.20;;;14.30;;
16963;SDS011;8598;50.508;10.436;2022-12-13T02:13:35;24.33;;;13.30;;
16963;SDS011;8598;50.508;10.436;2022-12-13T02:16:04;25.10;;;11.67;;
16963;SDS011;8598;50.508;10.436;2022-12-13T02:18:43;27.93;;;12.20;;
16963;SDS011;8598;50.508;10.436;2022-12-13T02:21:20;30.27;;;11.93;;
16963;SDS011;8598;50.508;10.436;2022-12-13T02:24:09;23.53;;;11.47;;
16963;SDS011;8598;50.508;10.436;2022-12-13T02:27:15;17.70;;;10.27;;
16963;SDS011;8598;50.508;10.436;2022-12-13T02:32:56;20.90;;;10.43;;
16963;SDS011;8598;50.508;10.436;2022-12-13T02:35:47;20.83;;;9.73;;
16963;SDS011;8598;50.508;10.436;2022-12-13T02:38:21;20.30;;;9.93;;
16963;SDS011;8598;50.508;10.436;2022-12-13T02:40:53;18.40;;;9.80;;
16963;SDS011;8598;50.508;10.436;2022-12-13T02:43:25;22.80;;;11.03;;
16963;SDS011;8598;50.508;10.436;2022-12-13T02:45:58;13.50;;;9.87;;
16963;SDS011;8598;50.508;10.436;2022-12-13T02:48:27;15.80;;;10.67;;
16963;SDS011;8598;50.508;10.436;2022-12-13T02:50:55;14.77;;;9.13;;
16963;SDS011;8598;50.508;10.436;2022-12-13T02:53:24;22.77;;;10.80;;
16963;SDS011;8598;50.508;10.436;2022-12-13T02:55:52;19.27;;;10.53;;
16963;SDS011;8598;50.508;10.436;2022-12-13T02:58:21;14.67;;;9.27;;
16963;SDS011;8598;50.508;10.436;2022-12-13T03:00:53;17.50;;;10.30;;
16963;SDS011;8598;50.508;10.436;2022-12-13T03:03:33;23.30;;;10.80;;
16963;SDS011;8598;50.508;10.436;2022-12-13T03:06:12;18.97;;;10.53;;
16963;SDS011;8598;50.508;10.436;2022-12-13T03:08:55;16.03;;;10.50;;
16963;SDS011;8598;50.508;10.436;2022-12-13T03:11:31;16.33;;;9.47;;
16963;SDS011;8598;50.508;10.436;2022-12-13T03:14:28;21.77;;;8.83;;
16963;SDS011;8598;50.508;10.436;2022-12-13T03:16:58;16.13;;;9.90;;
16963;SDS011;8598;50.508;10.436;2022-12-13T03:19:28;15.37;;;9.43;;
16963;SDS011;8598;50.508;10.436;2022-12-13T03:21:55;18.53;;;11.60;;
16963;SDS011;8598;50.508;10.436;2022-12-13T03:24:22;19.47;;;11.00;;
16963;SDS011;8598;50.508;10.436;2022-12-13T03:26:49;18.67;;;9.23;;
16963;SDS011;8598;50.508;10.436;2022-12-13T03:29:19;19.33;;;9.90;;
16963;SDS011;8598;50.508;10.436;2022-12-13T03:31:46;17.23;;;10.10;;
16963;SDS011;8598;50.508;10.436;2022-12-13T03:34:12;17.07;;;9.97;;
16963;SDS011;8598;50.508;10.436;2022-12-13T03:36:40;22.93;;;10.60;;
16963;SDS011;8598;50.508;10.436;2022-12-13T03:39:07;22.63;;;10.40;;
16963;SDS011;8598;50.508;10.436;2022-12-13T03:41:34;21.23;;;11.27;;
16963;SDS011;8598;50.508;10.436;2022-12-13T03:44:02;21.77;;;10.93;;
16963;SDS011;8598;50.508;10.436;2022-12-13T03:46:30;18.27;;;10.57;;
16963;SDS011;8598;50.508;10.436;2022-12-13T03:48:57;19.00;;;10.17;;
16963;SDS011;8598;50.508;10.436;2022-12-13T03:51:24;15.87;;;9.27;;
16963;SDS011;8598;50.508;10.436;2022-12-13T03:53:52;15.27;;;8.03;;
16963;SDS011;8598;50.508;10.436;2022-12-13T03:56:19;22.67;;;9.77;;
16963;SDS011;8598;50.508;10.436;2022-12-13T03:58:46;18.20;;;10.17;;
16963;SDS011;8598;50.508;10.436;2022-12-13T04:01:13;17.30;;;11.23;;
16963;SDS011;8598;50.508;10.436;2022-12-13T04:03:42;16.33;;;9.87;;
16963;SDS011;8598;50.508;10.436;2022-12-13T04:06:13;12.90;;;7.97;;
16963;SDS011;8598;50.508;10.436;2022-12-13T04:08:40;20.20;;;10.20;;
16963;SDS011;8598;50.508;10.436;2022-12-13T04:11:08;19.87;;;9.67;;
16963;SDS011;8598;50.508;10.436;2022-12-13T04:13:53;16.13;;;9.30;;
16963;SDS011;8598;50.508;10.436;2022-12-13T04:16:21;16.80;;;9.50;;
16963;SDS011;8598;50.508;10.436;2022-12-13T04:18:48;24.53;;;9.70;;
16963;SDS011;8598;50.508;10.436;2022-12-13T04:21:15;18.10;;;8.77;;
16963;SDS011;8598;50.508;10.436;2022-12-13T04:23:42;22.70;;;11.17;;
16963;SDS011;8598;50.508;10.436;2022-12-13T04:26:10;17.33;;;10.80;;
16963;SDS011;8598;50.508;10.436;2022-12-13T04:28:36;18.10;;;9.87;;
16963;SDS011;8598;50.508;10.436;2022-12-13T04:31:03;15.37;;;9.13;;
16963;SDS011;8598;50.508;10.436;2022-12-13T04:33:30;19.23;;;10.37;;
16963;SDS011;8598;50.508;10.436;2022-12-13T04:35:57;18.80;;;9.53;;
16963;SDS011;8598;50.508;10.436;2022-12-13T04:38:24;16.67;;;9.77;;
16963;SDS011;8598;50.508;10.436;2022-12-13T04:40:51;21.43;;;11.63;;
16963;SDS011;8598;50.508;10.436;2022-12-13T04:43:19;21.40;;;9.80;;
16963;SDS011;8598;50.508;10.436;2022-12-13T04:45:46;22.03;;;12.43;;
16963;SDS011;8598;50.508;10.436;2022-12-13T04:48:13;21.23;;;12.67;;
16963;SDS011;8598;50.508;10.436;2022-12-13T04:50:40;19.93;;;11.47;;
16963;SDS011;8598;50.508;10.436;2022-12-13T04:53:11;23.57;;;11.37;;
16963;SDS011;8598;50.508;10.436;2022-12-13T04:55:39;18.60;;;10.77;;
16963;SDS011;8598;50.508;10.436;2022-12-13T04:58:06;17.20;;;10.63;;
16963;SDS011;8598;50.508;10.436;2022-12-13T05:00:35;13.07;;;9.83;;
16963;SDS011;8598;50.508;10.436;2022-12-13T05:03:02;17.93;;;10.17;;
16963;SDS011;8598;50.508;10.436;2022-12-13T05:05:29;18.30;;;10.43;;
16963;SDS011;8598;50.508;10.436;2022-12-13T05:07:55;17.83;;;9.43;;
16963;SDS011;8598;50.508;10.436;2022-12-13T05:10:22;19.73;;;10.27;;
16963;SDS011;8598;50.508;10.436;2022-12-13T05:12:49;20.30;;;8.47;;
16963;SDS011;8598;50.508;10.436;2022-12-13T05:15:15;10.77;;;7.80;;
16963;SDS011;8598;50.508;10.436;2022-12-13T05:17:44;18.13;;;8.87;;
16963;SDS011;8598;50.508;10.436;2022-12-13T05:20:10;16.47;;;11.03;;
16963;SDS011;8598;50.508;10.436;2022-12-13T05:22:37;15.20;;;8.30;;
16963;SDS011;8598;50.508;10.436;2022-12-13T05:25:05;15.53;;;9.63;;
16963;SDS011;8598;50.508;10.436;2022-12-13T05:27:32;14.97;;;8.73;;
16963;SDS011;8598;50.508;10.436;2022-12-13T05:29:59;17.07;;;8.87;;
16963;SDS011;8598;50.508;10.436;2022-12-13T05:32:25;17.97;;;8.87;;
16963;SDS011;8598;50.508;10.436;2022-12-13T05:34:54;15.37;;;9.20;;
16963;SDS011;8598;50.508;10.436;2022-12-13T05:37:20;18.60;;;9.33;;
16963;SDS011;8598;50.508;10.436;2022-12-13T05:39:47;25.33;;;11.90;;
16963;SDS011;8598;50.508;10.436;2022-12-13T05:42:14;18.67;;;8.47;;
16963;SDS011;8598;50.508;10.436;2022-12-13T05:44:41;20.40;;;10.07;;
16963;SDS011;8598;50.508;10.436;2022-12-13T05:47:07;18.97;;;8.47;;
16963;SDS011;8598;50.508;10.436;2022-12-13T05:49:34;13.80;;;7.97;;
16963;SDS011;8598;50.508;10.436;2022-12-13T05:52:02;18.47;;;10.10;;
16963;SDS011;8598;50.508;10.436;2022-12-13T05:54:29;17.33;;;9.87;;
16963;SDS011;8598;50.508;10.436;2022-12-13T05:56:55;17.20;;;9.23;;
16963;SDS011;8598;50.508;10.436;2022-12-13T05:59:22;17.70;;;8.50;;
16963;SDS011;8598;50.508;10.436;2022-12-13T06:01:49;12.17;;;8.70;;
16963;SDS011;8598;50.508;10.436;2022-12-13T06:04:16;21.40;;;10.10;;
16963;SDS011;8598;50.508;10.436;2022-12-13T06:06:42;15.87;;;8.90;;
16963;SDS011;8598;50.508;10.436;2022-12-13T06:09:10;18.33;;;9.10;;
16963;SDS011;8598;50.508;10.436;2022-12-13T06:11:37;20.33;;;7.97;;
16963;SDS011;8598;50.508;10.436;2022-12-13T06:14:04;25.33;;;11.30;;
16963;SDS011;8598;50.508;10.436;2022-12-13T06:16:31;14.27;;;9.10;;
16963;SDS011;8598;50.508;10.436;2022-12-13T06:18:57;12.17;;;7.80;;
16963;SDS011;8598;50.508;10.436;2022-12-13T06:21:24;17.73;;;9.13;;
16963;SDS011;8598;50.508;10.436;2022-12-13T06:23:51;15.70;;;8.17;;
16963;SDS011;8598;50.508;10.436;2022-12-13T06:26:19;12.87;;;9.63;;
16963;SDS011;8598;50.508;10.436;2022-12-13T06:28:46;15.63;;;8.90;;
16963;SDS011;8598;50.508;10.436;2022-12-13T06:31:13;12.80;;;8.23;;
16963;SDS011;8598;50.508;10.436;2022-12-13T06:33:42;12.87;;;8.63;;
16963;SDS011;8598;50.508;10.436;2022-12-13T06:36:09;18.13;;;8.50;;
16963;SDS011;8598;50.508;10.436;2022-12-13T06:38:35;16.30;;;8.43;;
16963;SDS011;8598;50.508;10.436;2022-12-13T06:41:07;15.97;;;9.07;;
16963;SDS011;8598;50.508;10.436;2022-12-13T06:43:36;27.77;;;10.37;;
16963;SDS011;8598;50.508;10.436;2022-12-13T06:46:04;18.47;;;8.70;;
16963;SDS011;8598;50.508;10.436;2022-12-13T06:48:31;14.60;;;9.47;;
16963;SDS011;8598;50.508;10.436;2022-12-13T06:51:00;15.83;;;8.97;;
16963;SDS011;8598;50.508;10.436;2022-12-13T06:53:28;32.00;;;14.60;;
16963;SDS011;8598;50.508;10.436;2022-12-13T06:55:55;21.57;;;11.53;;
16963;SDS011;8598;50.508;10.436;2022-12-13T06:58:22;23.37;;;10.63;;
16963;SDS011;8598;50.508;10.436;2022-12-13T07:00:59;19.50;;;9.30;;
16963;SDS011;8598;50.508;10.436;2022-12-13T07:03:26;45.43;;;9.80;;
16963;SDS011;8598;50.508;10.436;2022-12-13T07:05:53;18.50;;;8.80;;
16963;SDS011;8598;50.508;10.436;2022-12-13T07:08:20;16.37;;;8.87;;
16963;SDS011;8598;50.508;10.436;2022-12-13T07:10:46;19.63;;;8.43;;
16963;SDS011;8598;50.508;10.436;2022-12-13T07:13:13;16.90;;;7.40;;
16963;SDS011;8598;50.508;10.436;2022-12-13T07:15:40;23.27;;;8.97;;
16963;SDS011;8598;50.508;10.436;2022-12-13T07:18:08;18.10;;;10.33;;
16963;SDS011;8598;50.508;10.436;2022-12-13T07:20:35;20.17;;;10.23;;
16963;SDS011;8598;50.508;10.436;2022-12-13T07:23:04;16.00;;;8.83;;
16963;SDS011;8598;50.508;10.436;2022-12-13T07:25:31;21.07;;;11.63;;
16963;SDS011;8598;50.508;10.436;2022-12-13T07:27:58;21.37;;;10.53;;
16963;SDS011;8598;50.508;10.436;2022-12-13T07:30:26;20.23;;;10.30;;
16963;SDS011;8598;50.508;10.436;2022-12-13T07:32:53;21.97;;;9.50;;
16963;SDS011;8598;50.508;10.436;2022-12-13T07:35:21;19.60;;;9.30;;
16963;SDS011;8598;50.508;10.436;2022-12-13T07:37:48;18.63;;;8.67;;
16963;SDS011;8598;50.508;10.436;2022-12-13T07:40:14;19.40;;;9.53;;
16963;SDS011;8598;50.508;10.436;2022-12-13T07:42:47;17.87;;;8.67;;
16963;SDS011;8598;50.508;10.436;2022-12-13T07:45:14;13.57;;;8.87;;
16963;SDS011;8598;50.508;10.436;2022-12-13T07:47:41;17.10;;;8.77;;
16963;SDS011;8598;50.508;10.436;2022-12-13T07:50:08;18.03;;;9.97;;
16963;SDS011;8598;50.508;10.436;2022-12-13T07:52:36;21.60;;;11.53;;
16963;SDS011;8598;50.508;10.436;2022-12-13T07:55:04;21.37;;;10.40;;
16963;SDS011;8598;50.508;10.436;2022-12-13T07:57:32;14.90;;;7.93;;
16963;SDS011;8598;50.508;10.436;2022-12-13T07:59:59;19.93;;;9.43;;
16963;SDS011;8598;50.508;10.436;2022-12-13T08:02:26;18.73;;;9.40;;
16963;SDS011;8598;50.508;10.436;2022-12-13T08:04:53;16.60;;;8.67;;
16963;SDS011;8598;50.508;10.436;2022-12-13T08:07:19;16.60;;;8.03;;
16963;SDS011;8598;50.508;10.436;2022-12-13T08:09:47;18.77;;;9.80;;
16963;SDS011;8598;50.508;10.436;2022-12-13T08:12:14;23.73;;;9.70;;
16963;SDS011;8598;50.508;10.436;2022-12-13T08:14:41;22.27;;;8.37;;
16963;SDS011;8598;50.508;10.436;2022-12-13T08:17:07;13.57;;;8.67;;
16963;SDS011;8598;50.508;10.436;2022-12-13T08:19:34;16.53;;;9.03;;
16963;SDS011;8598;50.508;10.436;2022-12-13T08:22:01;29.10;;;10.37;;
16963;SDS011;8598;50.508;10.436;2022-12-13T08:24:28;20.33;;;11.17;;
16963;SDS011;8598;50.508;10.436;2022-12-13T08:26:58;20.63;;;10.13;;
16963;SDS011;8598;50.508;10.436;2022-12-13T08:29:26;24.60;;;10.77;;
16963;SDS011;8598;50.508;10.436;2022-12-13T08:31:53;18.93;;;9.80;;
16963;SDS011;8598;50.508;10.436;2022-12-13T08:34:19;18.57;;;9.30;;
16963;SDS011;8598;50.508;10.436;2022-12-13T08:36:46;27.03;;;10.73;;
16963;SDS011;8598;50.508;10.436;2022-12-13T08:39:13;13.63;;;8.83;;
16963;SDS011;8598;50.508;10.436;2022-12-13T08:41:40;16.37;;;9.27;;
16963;SDS011;8598;50.508;10.436;2022-12-13T08:44:08;20.17;;;10.53;;
16963;SDS011;8598;50.508;10.436;2022-12-13T08:46:35;29.47;;;15.00;;
16963;SDS011;8598;50.508;10.436;2022-12-13T08:49:01;18.33;;;9.33;;
16963;SDS011;8598;50.508;10.436;2022-12-13T08:51:28;18.27;;;10.47;;
16963;SDS011;8598;50.508;10.436;2022-12-13T08:53:55;28.03;;;10.60;;
16963;SDS011;8598;50.508;10.436;2022-12-13T08:56:22;16.67;;;9.87;;
16963;SDS011;8598;50.508;10.436;2022-12-13T08:58:49;23.20;;;10.77;;
16963;SDS011;8598;50.508;10.436;2022-12-13T09:01:17;15.90;;;9.33;;
16963;SDS011;8598;50.508;10.436;2022-12-13T09:03:44;31.87;;;10.43;;
16963;SDS011;8598;50.508;10.436;2022-12-13T09:06:12;21.33;;;9.30;;
16963;SDS011;8598;50.508;10.436;2022-12-13T09:08:40;25.23;;;9.37;;
16963;SDS011;8598;50.508;10.436;2022-12-13T09:11:08;21.67;;;10.13;;
16963;SDS011;8598;50.508;10.436;2022-12-13T09:13:36;15.47;;;8.67;;
16963;SDS011;8598;50.508;10.436;2022-12-13T09:16:04;17.30;;;7.97;;
16963;SDS011;8598;50.508;10.436;2022-12-13T09:18:34;15.17;;;8.10;;
16963;SDS011;8598;50.508;10.436;2022-12-13T09:21:04;19.10;;;9.67;;
16963;SDS011;8598;50.508;10.436;2022-12-13T09:23:32;21.07;;;8.73;;
16963;SDS011;8598;50.508;10.436;2022-12-13T09:25:59;17.60;;;9.20;;
16963;SDS011;8598;50.508;10.436;2022-12-13T09:28:25;18.57;;;9.27;;
16963;SDS011;8598;50.508;10.436;2022-12-13T09:30:53;18.40;;;8.17;;
16963;SDS011;8598;50.508;10.436;2022-12-13T09:33:20;21.87;;;10.30;;
16963;SDS011;8598;50.508;10.436;2022-12-13T09:35:48;18.73;;;9.33;;
16963;SDS011;8598;50.508;10.436;2022-12-13T09:38:16;13.00;;;7.60;;
16963;SDS011;8598;50.508;10.436;2022-12-13T09:40:43;15.40;;;8.70;;
16963;SDS011;8598;50.508;10.436;2022-12-13T09:43:15;19.47;;;8.43;;
16963;SDS011;8598;50.508;10.436;2022-12-13T09:45:47;21.63;;;9.07;;
16963;SDS011;8598;50.508;10.436;2022-12-13T09:48:15;18.07;;;7.80;;
16963;SDS011;8598;50.508;10.436;2022-12-13T09:50:44;18.80;;;8.17;;
16963;SDS011;8598;50.508;10.436;2022-12-13T09:53:13;12.23;;;8.07;;
16963;SDS011;8598;50.508;10.436;2022-12-13T09:55:44;21.17;;;10.20;;
16963;SDS011;8598;50.508;10.436;2022-12-13T09:58:13;21.17;;;9.43;;
16963;SDS011;8598;50.508;10.436;2022-12-13T10:00:43;13.73;;;8.40;;
16963;SDS011;8598;50.508;10.436;2022-12-13T10:03:15;74.20;;;28.43;;
16963;SDS011;8598;50.508;10.436;2022-12-13T10:05:44;47.87;;;18.93;;
16963;SDS011;8598;50.508;10.436;2022-12-13T10:08:19;53.87;;;19.63;;
16963;SDS011;8598;50.508;10.436;2022-12-13T10:10:48;32.03;;;14.97;;
16963;SDS011;8598;50.508;10.436;2022-12-13T10:13:18;24.60;;;12.27;;
16963;SDS011;8598;50.508;10.436;2022-12-13T10:15:47;15.80;;;8.10;;
16963;SDS011;8598;50.508;10.436;2022-12-13T10:18:20;21.40;;;8.90;;
16963;SDS011;8598;50.508;10.436;2022-12-13T10:20:56;24.83;;;10.33;;
16963;SDS011;8598;50.508;10.436;2022-12-13T10:23:25;26.53;;;12.13;;
16963;SDS011;8598;50.508;10.436;2022-12-13T10:25:52;18.27;;;9.67;;
16963;SDS011;8598;50.508;10.436;2022-12-13T10:28:23;16.57;;;8.70;;
16963;SDS011;8598;50.508;10.436;2022-12-13T10:30:52;15.47;;;8.17;;
16963;SDS011;8598;50.508;10.436;2022-12-13T10:33:21;17.43;;;10.13;;
16963;SDS011;8598;50.508;10.436;2022-12-13T10:36:13;16.40;;;7.77;;
16963;SDS011;8598;50.508;10.436;2022-12-13T10:38:42;19.83;;;8.27;;
16963;SDS011;8598;50.508;10.436;2022-12-13T10:41:27;14.43;;;6.70;;
16963;SDS011;8598;50.508;10.436;2022-12-13T10:44:06;11.13;;;7.13;;
16963;SDS011;8598;50.508;10.436;2022-12-13T10:46:48;11.07;;;5.97;;
16963;SDS011;8598;50.508;10.436;2022-12-13T10:49:24;11.23;;;6.57;;
16963;SDS011;8598;50.508;10.436;2022-12-13T10:51:52;15.40;;;7.77;;
16963;SDS011;8598;50.508;10.436;2022-12-13T10:54:24;13.40;;;7.57;;
16963;SDS011;8598;50.508;10.436;2022-12-13T10:56:53;15.23;;;7.10;;
16963;SDS011;8598;50.508;10.436;2022-12-13T10:59:30;12.93;;;6.93;;
16963;SDS011;8598;50.508;10.436;2022-12-13T11:01:58;17.57;;;9.57;;
16963;SDS011;8598;50.508;10.436;2022-12-13T11:04:28;15.20;;;7.57;;
16963;SDS011;8598;50.508;10.436;2022-12-13T11:06:57;13.43;;;6.90;;
16963;SDS011;8598;50.508;10.436;2022-12-13T11:09:27;20.63;;;11.63;;
16963;SDS011;8598;50.508;10.436;2022-12-13T11:11:57;20.40;;;10.07;;
16963;SDS011;8598;50.508;10.436;2022-12-13T11:14:31;19.10;;;9.67;;
16963;SDS011;8598;50.508;10.436;2022-12-13T11:17:04;17.17;;;8.43;;
16963;SDS011;8598;50.508;10.436;2022-12-13T11:19:35;15.00;;;8.93;;
16963;SDS011;8598;50.508;10.436;2022-12-13T11:22:04;17.20;;;8.00;;
16963;SDS011;8598;50.508;10.436;2022-12-13T11:24:35;17.03;;;8.33;;
16963;SDS011;8598;50.508;10.436;2022-12-13T11:27:09;20.43;;;8.83;;
16963;SDS011;8598;50.508;10.436;2022-12-13T11:29:53;21.43;;;9.57;;
16963;SDS011;8598;50.508;10.436;2022-12-13T11:32:41;23.67;;;9.70;;
16963;SDS011;8598;50.508;10.436;2022-12-13T11:35:22;17.07;;;9.43;;
16963;SDS011;8598;50.508;10.436;2022-12-13T11:37:57;47.77;;;18.00;;
16963;SDS011;8598;50.508;10.436;2022-12-13T11:40:31;36.73;;;12.93;;
16963;SDS011;8598;50.508;10.436;2022-12-13T11:43:08;55.63;;;17.50;;
16963;SDS011;8598;50.508;10.436;2022-12-13T11:45:40;39.03;;;12.60;;
16963;SDS011;8598;50.508;10.436;2022-12-13T11:48:12;46.33;;;16.97;;
16963;SDS011;8598;50.508;10.436;2022-12-13T11:50:44;34.93;;;14.80;;
16963;SDS011;8598;50.508;10.436;2022-12-13T11:53:16;36.00;;;15.10;;
16963;SDS011;8598;50.508;10.436;2022-12-13T11:55:50;33.90;;;17.10;;
16963;SDS011;8598;50.508;10.436;2022-12-13T11:58:21;41.13;;;17.20;;
16963;SDS011;8598;50.508;10.436;2022-12-13T12:00:54;47.80;;;21.67;;
16963;SDS011;8598;50.508;10.436;2022-12-13T12:03:27;25.07;;;12.80;;
16963;SDS011;8598;50.508;10.436;2022-12-13T12:06:01;23.47;;;11.73;;
16963;SDS011;8598;50.508;10.436;2022-12-13T12:08:36;25.23;;;10.77;;
16963;SDS011;8598;50.508;10.436;2022-12-13T12:11:07;17.23;;;8.77;;
16963;SDS011;8598;50.508;10.436;2022-12-13T12:13:42;27.10;;;13.20;;
16963;SDS011;8598;50.508;10.436;2022-12-13T12:16:16;12.37;;;6.90;;
16963;SDS011;8598;50.508;10.436;2022-12-13T12:18:49;17.10;;;8.40;;
16963;SDS011;8598;50.508;10.436;2022-12-13T12:21:23;18.33;;;9.73;;
16963;SDS011;8598;50.508;10.436;2022-12-13T12:24:02;17.00;;;9.53;;
16963;SDS011;8598;50.508;10.436;2022-12-13T12:26:39;16.03;;;8.93;;
16963;SDS011;8598;50.508;10.436;2022-12-13T12:29:24;18.10;;;8.40;;
16963;SDS011;8598;50.508;10.436;2022-12-13T12:32:06;30.67;;;11.63;;
16963;SDS011;8598;50.508;10.436;2022-12-13T12:34:41;23.90;;;11.17;;
16963;SDS011;8598;50.508;10.436;2022-12-13T12:37:20;22.67;;;9.87;;
16963;SDS011;8598;50.508;10.436;2022-12-13T12:40:00;28.33;;;12.70;;
16963;SDS011;8598;50.508;10.436;2022-12-13T12:43:00;15.03;;;7.03;;
16963;SDS011;8598;50.508;10.436;2022-12-13T12:45:34;12.67;;;7.23;;
16963;SDS011;8598;50.508;10.436;2022-12-13T12:48:16;12.57;;;7.73;;
16963;SDS011;8598;50.508;10.436;2022-12-13T12:50:59;13.37;;;7.60;;
16963;SDS011;8598;50.508;10.436;2022-12-13T12:53:34;14.77;;;8.20;;
16963;SDS011;8598;50.508;10.436;2022-12-13T12:56:08;14.63;;;8.00;;
16963;SDS011;8598;50.508;10.436;2022-12-13T12:58:51;17.63;;;9.27;;
16963;SDS011;8598;50.508;10.436;2022-12-13T13:01:31;17.13;;;8.63;;
16963;SDS011;8598;50.508;10.436;2022-12-13T13:04:09;25.57;;;13.00;;
16963;SDS011;8598;50.508;10.436;2022-12-13T13:06:40;55.13;;;24.33;;
16963;SDS011;8598;50.508;10.436;2022-12-13T13:09:11;18.40;;;9.73;;
16963;SDS011;8598;50.508;10.436;2022-12-13T13:11:40;26.77;;;14.40;;
16963;SDS011;8598;50.508;10.436;2022-12-13T13:14:27;19.83;;;8.23;;
16963;SDS011;8598;50.508;10.436;2022-12-13T13:16:56;17.70;;;8.30;;
16963;SDS011;8598;50.508;10.436;2022-12-13T13:19:39;13.80;;;9.43;;
16963;SDS011;8598;50.508;10.436;2022-12-13T13:28:02;19.47;;;9.87;;
16963;SDS011;8598;50.508;10.436;2022-12-13T13:30:33;15.37;;;8.57;;
16963;SDS011;8598;50.508;10.436;2022-12-13T13:33:00;17.60;;;9.00;;
16963;SDS011;8598;50.508;10.436;2022-12-13T13:38:27;14.27;;;7.27;;
16963;SDS011;8598;50.508;10.436;2022-12-13T13:44:31;17.27;;;7.73;;
16963;SDS011;8598;50.508;10.436;2022-12-13T13:47:12;15.80;;;7.77;;
16963;SDS011;8598;50.508;10.436;2022-12-13T13:49:45;14.77;;;7.57;;
16963;SDS011;8598;50.508;10.436;2022-12-13T13:52:19;11.63;;;6.43;;
16963;SDS011;8598;50.508;10.436;2022-12-13T13:57:59;16.27;;;6.47;;
16963;SDS011;8598;50.508;10.436;2022-12-13T14:00:54;18.60;;;10.30;;
16963;SDS011;8598;50.508;10.436;2022-12-13T14:03:57;33.40;;;16.03;;
16963;SDS011;8598;50.508;10.436;2022-12-13T14:10:04;84.97;;;34.93;;
16963;SDS011;8598;50.508;10.436;2022-12-13T14:13:01;92.67;;;34.40;;
16963;SDS011;8598;50.508;10.436;2022-12-13T14:19:01;77.37;;;31.30;;
16963;SDS011;8598;50.508;10.436;2022-12-13T14:24:52;23.03;;;10.90;;
16963;SDS011;8598;50.508;10.436;2022-12-13T14:27:30;15.63;;;9.13;;
16963;SDS011;8598;50.508;10.436;2022-12-13T14:30:10;16.50;;;8.77;;
16963;SDS011;8598;50.508;10.436;2022-12-13T14:32:39;15.27;;;7.07;;
16963;SDS011;8598;50.508;10.436;2022-12-13T14:35:20;14.53;;;7.70;;
16963;SDS011;8598;50.508;10.436;2022-12-13T14:37:55;15.07;;;8.27;;
16963;SDS011;8598;50.508;10.436;2022-12-13T14:40:26;18.97;;;8.30;;
16963;SDS011;8598;50.508;10.436;2022-12-13T14:42:55;17.23;;;9.73;;
16963;SDS011;8598;50.508;10.436;2022-12-13T14:45:23;19.47;;;8.63;;
16963;SDS011;8598;50.508;10.436;2022-12-13T14:47:54;25.60;;;11.47;;
16963;SDS011;8598;50.508;10.436;2022-12-13T14:50:24;19.63;;;10.30;;
16963;SDS011;8598;50.508;10.436;2022-12-13T14:52:52;21.07;;;10.87;;
16963;SDS011;8598;50.508;10.436;2022-12-13T14:55:22;35.80;;;15.33;;
16963;SDS011;8598;50.508;10.436;2022-12-13T14:57:52;27.67;;;13.33;;
16963;SDS011;8598;50.508;10.436;2022-12-13T15:00:21;25.77;;;14.67;;
16963;SDS011;8598;50.508;10.436;2022-12-13T15:02:53;27.53;;;13.50;;
16963;SDS011;8598;50.508;10.436;2022-12-13T15:05:26;23.00;;;12.97;;
16963;SDS011;8598;50.508;10.436;2022-12-13T15:07:55;18.87;;;9.17;;
16963;SDS011;8598;50.508;10.436;2022-12-13T15:10:23;41.80;;;17.00;;
16963;SDS011;8598;50.508;10.436;2022-12-13T15:12:56;38.23;;;15.60;;
16963;SDS011;8598;50.508;10.436;2022-12-13T15:15:25;23.43;;;12.03;;